Leyendecker II PSRC

2021-03-02 07:25:00

  • imperial
Date Time Air Temperature Relative Humidity Dewpoint Heat Index Wind Speed Wind Dir. Rain Solar Radiation Soil Temperature
2m 2m 3m 3m 10cm
US/Mountain F % F F MPH deg in MJ/m^2 F
max avg avg
2021-03-01 07:30:00 40.3 51.2 23.7 40.3 7.6 12.2 9.2 4.6 7.3 0.00 0.0461170 44.6
2021-03-01 07:35:00 40.8 49.7 23.4 40.8 8.0 10.5 8.0 5.1 1.8 0.00 0.0514604 44.5
2021-03-01 07:40:00 41.2 47.4 22.7 41.2 8.8 11.0 8.0 28.5 11.9 0.00 0.0564885 44.5
2021-03-01 07:45:00 41.5 46.7 22.7 41.5 7.2 10.3 7.5 3.3 5.7 0.00 0.0620239 44.5
2021-03-01 07:50:00 42.0 45.3 22.4 42.0 8.1 8.5 6.8 7.4 9.2 0.00 0.0673402 44.5
2021-03-01 07:55:00 42.6 43.4 21.9 42.6 7.6 8.5 7.1 9.8 357.9 0.00 0.0722544 44.5
2021-03-01 08:00:00 43.2 42.6 22.0 43.2 4.9 8.1 5.8 1.5 3.7 0.00 0.0774975 44.5
2021-03-01 08:05:00 43.8 40.7 21.4 43.8 6.9 7.8 5.7 2.1 10.5 0.00 0.0824479 44.5
2021-03-01 08:10:00 44.5 39.3 21.3 44.5 6.5 8.8 7.2 40.8 27.2 0.00 0.0877270 44.5
2021-03-01 08:15:00 45.0 39.3 21.7 45.0 3.5 8.5 6.3 54.1 37.5 0.00 0.0929104 44.5
2021-03-01 08:20:00 45.5 37.9 21.3 45.5 5.5 8.7 6.0 47.0 38.1 0.00 0.0982782 44.5
2021-03-01 08:25:00 46.2 36.3 20.9 46.2 3.0 6.9 4.6 37.8 55.2 0.00 0.1034684 44.5
2021-03-01 08:30:00 46.4 33.3 19.1 46.4 6.5 9.9 5.5 43.6 86.6 0.00 0.1091942 44.5
2021-03-01 08:35:00 45.6 32.3 17.6 45.6 7.6 9.6 7.3 137.1 129.7 0.00 0.1142631 44.5
2021-03-01 08:40:00 45.7 32.3 17.7 45.7 6.3 8.1 6.5 126.0 134.5 0.00 0.1196587 44.5
2021-03-01 08:45:00 45.8 32.3 17.9 45.8 4.9 6.5 5.3 157.5 125.1 0.00 0.1250487 44.5
2021-03-01 08:50:00 46.5 31.0 17.5 46.5 3.5 6.0 4.7 184.6 150.7 0.00 0.1307266 44.5
2021-03-01 08:55:00 46.5 30.1 16.8 46.5 4.6 6.9 4.9 147.3 156.6 0.00 0.1350118 44.5
2021-03-01 09:00:00 46.6 30.8 17.4 46.6 3.8 6.0 4.4 143.8 163.3 0.00 0.1397543 44.5
2021-03-01 09:05:00 46.8 30.3 17.2 46.8 5.5 6.3 4.4 185.5 171.5 0.00 0.1448889 44.5
2021-03-01 09:10:00 46.9 30.1 17.1 46.9 4.2 7.1 4.2 199.4 177.5 0.00 0.1501110 44.5
2021-03-01 09:15:00 47.1 29.7 16.9 47.1 3.5 6.2 4.0 197.7 204.5 0.00 0.1556696 44.5
2021-03-01 09:20:00 48.2 28.5 17.0 48.2 4.7 5.8 3.8 182.9 166.5 0.00 0.1606673 44.5
2021-03-01 09:25:00 47.9 28.8 16.9 47.9 3.3 5.6 4.1 73.5 141.6 0.00 0.1649785 44.6
2021-03-01 09:30:00 48.8 29.0 18.0 48.8 2.4 3.3 2.3 289.0 27.7 0.00 0.1698937 44.6
2021-03-01 09:35:00 49.2 28.1 17.5 49.2 4.0 5.1 3.3 313.2 319.5 0.00 0.1753757 44.6
2021-03-01 09:40:00 48.9 28.8 17.8 48.9 3.3 4.9 3.7 209.6 258.6 0.00 0.1787235 44.6
2021-03-01 09:45:00 48.8 28.9 17.8 48.8 3.5 7.2 3.7 267.3 325.8 0.00 0.1834069 44.6
2021-03-01 09:50:00 49.4 28.4 17.9 49.4 6.0 8.8 4.9 291.2 312.0 0.00 0.1830303 44.7
2021-03-01 09:55:00 48.9 28.4 17.5 48.9 4.2 7.2 5.5 273.3 287.4 0.00 0.1406406 44.7
2021-03-01 10:00:00 48.2 29.0 17.4 48.2 4.7 6.9 4.7 14.0 317.3 0.00 0.0773038 44.7
2021-03-01 10:05:00 47.4 28.6 16.4 47.4 3.5 7.6 5.1 121.6 36.5 0.00 0.0669985 44.7
2021-03-01 10:10:00 49.6 28.3 18.0 49.6 4.0 4.0 2.8 43.3 62.9 0.00 0.2220957 44.8
2021-03-01 10:15:00 50.0 27.4 17.7 50.0 3.8 7.1 4.0 39.1 50.7 0.00 0.2319833 44.8
2021-03-01 10:20:00 51.4 26.3 17.9 51.4 6.3 6.3 3.3 34.9 259.0 0.00 0.2303873 44.8
2021-03-01 10:25:00 51.1 26.6 17.9 51.1 3.5 11.7 5.8 43.1 55.2 0.00 0.2279890 44.9
2021-03-01 10:30:00 50.9 26.6 17.8 50.9 7.4 16.2 9.2 98.9 82.8 0.00 0.2293647 44.9
2021-03-01 10:35:00 50.5 27.0 17.7 50.5 8.1 14.4 9.8 83.4 104.6 0.00 0.2318588 44.9
2021-03-01 10:40:00 50.7 26.1 17.1 50.7 6.7 14.6 8.0 68.3 86.8 0.00 0.2319731 45.0
2021-03-01 10:45:00 51.0 25.1 16.5 51.0 13.0 13.0 9.1 121.4 107.0 0.00 0.2321870 45.0
2021-03-01 10:50:00 51.3 25.3 16.9 51.3 13.1 14.6 10.9 111.5 110.6 0.00 0.2355600 45.0
2021-03-01 10:55:00 50.9 27.1 18.2 50.9 6.0 14.0 8.7 96.4 102.7 0.00 0.2386912 45.1
2021-03-01 11:00:00 51.0 26.1 17.3 51.0 11.5 14.6 9.9 123.0 102.7 0.00 0.2437703 45.1
2021-03-01 11:05:00 51.5 24.4 16.2 51.5 9.9 14.2 9.2 123.7 99.5 0.00 0.2472250 45.2
2021-03-01 11:10:00 51.8 25.5 17.5 51.8 6.7 11.3 8.0 81.5 113.5 0.00 0.2474547 45.2
2021-03-01 11:15:00 52.1 25.1 17.4 52.1 9.2 11.3 6.1 84.6 62.0 0.00 0.2524268 45.2
2021-03-01 11:20:00 52.1 26.5 18.7 52.1 4.2 15.6 10.1 37.2 98.3 0.00 0.2533392 45.3
2021-03-01 11:25:00 51.0 27.2 18.3 51.0 5.8 13.9 7.7 115.2 99.3 0.00 0.2547270 45.3
2021-03-01 11:30:00 51.3 26.8 18.2 51.3 8.5 18.1 13.0 120.6 107.9 0.00 0.2567079 45.4
2021-03-01 11:35:00 51.3 27.9 19.2 51.3 12.2 17.2 12.0 134.7 107.3 0.00 0.2569879 45.5
2021-03-01 11:40:00 51.1 28.2 19.3 51.1 11.5 15.3 12.1 137.9 122.0 0.00 0.2561098 45.5
2021-03-01 11:45:00 51.8 27.1 18.9 51.8 13.9 16.9 12.3 114.8 111.0 0.00 0.2562187 45.5
2021-03-01 11:50:00 52.6 26.7 19.3 52.6 14.2 16.2 10.7 105.4 108.1 0.00 0.2582804 45.6
2021-03-01 11:55:00 52.4 27.2 19.5 52.4 12.2 14.2 10.2 139.6 116.5 0.00 0.2591460 45.7
2021-03-01 12:00:00 52.4 27.5 19.8 52.4 11.3 16.0 12.7 106.7 112.3 0.00 0.2594787 45.7
2021-03-01 12:05:00 52.3 27.0 19.3 52.3 11.0 15.8 11.4 144.9 124.8 0.00 0.2604698 45.8
2021-03-01 12:10:00 52.7 28.4 20.8 52.7 13.5 14.7 11.1 127.9 118.7 0.00 0.2622497 45.8
2021-03-01 12:15:00 52.4 28.9 21.0 52.4 8.5 19.2 13.4 88.3 103.1 0.00 0.2625801 45.9
2021-03-01 12:20:00 52.9 28.8 21.3 52.9 16.0 16.5 11.1 96.8 111.5 0.00 0.2621815 45.9
2021-03-01 12:25:00 51.6 29.9 21.1 51.6 12.2 17.4 13.8 131.2 115.3 0.00 0.2610074 46.0
2021-03-01 12:30:00 52.4 29.1 21.1 52.4 14.7 16.9 13.5 130.1 125.9 0.00 0.2606617 46.0
2021-03-01 12:35:00 52.3 29.1 21.0 52.3 13.5 16.2 12.2 91.2 116.6 0.00 0.2608249 46.1
2021-03-01 12:40:00 52.9 28.4 21.0 52.9 9.0 13.7 10.9 115.6 118.8 0.00 0.2601221 46.2
2021-03-01 12:45:00 52.8 27.6 20.2 52.8 9.4 15.5 9.6 129.7 107.6 0.00 0.2602403 46.2
2021-03-01 12:50:00 53.2 27.6 20.6 53.2 8.3 14.9 8.6 158.5 123.9 0.00 0.2587688 46.3
2021-03-01 12:55:00 53.3 27.4 20.6 53.3 7.8 13.5 9.7 123.7 112.5 0.00 0.2577647 46.4
2021-03-01 13:00:00 53.6 26.3 19.8 53.6 5.6 10.1 7.1 160.7 128.3 0.00 0.2569624 46.4
2021-03-01 13:05:00 53.3 27.7 20.7 53.3 6.7 12.1 8.0 90.0 90.5 0.00 0.2553846 46.5
2021-03-01 13:10:00 53.9 26.6 20.3 53.9 14.4 14.4 8.7 127.5 115.9 0.00 0.2538851 46.5
2021-03-01 13:15:00 53.3 27.7 20.8 53.3 9.6 14.9 10.8 157.6 145.7 0.00 0.2510365 46.6
2021-03-01 13:20:00 54.1 27.4 21.2 54.1 11.3 17.1 10.0 89.9 109.8 0.00 0.2507486 46.6
2021-03-01 13:25:00 53.4 27.7 20.8 53.4 10.6 16.5 11.9 99.1 121.5 0.00 0.2490734 46.7
2021-03-01 13:30:00 53.2 27.0 20.1 53.2 6.0 10.3 7.6 186.1 155.8 0.00 0.2468715 46.7
2021-03-01 13:35:00 54.0 25.6 19.5 54.0 11.9 15.3 8.5 107.5 112.0 0.00 0.2455590 46.8
2021-03-01 13:40:00 53.7 26.9 20.4 53.7 11.7 12.4 7.0 93.8 121.3 0.00 0.2430921 46.9
2021-03-01 13:45:00 54.1 25.7 19.7 54.1 9.6 13.3 10.1 131.6 122.3 0.00 0.2412975 46.9
2021-03-01 13:50:00 54.1 25.3 19.3 54.1 8.0 13.9 9.8 123.3 134.8 0.00 0.2390244 47.0
2021-03-01 13:55:00 54.8 24.3 18.9 54.8 9.0 11.3 8.2 152.4 134.2 0.00 0.2355827 47.0
2021-03-01 14:00:00 54.0 25.3 19.2 54.0 9.4 14.0 9.9 112.0 113.8 0.00 0.2318076 47.1
2021-03-01 14:05:00 54.3 23.7 17.9 54.3 7.6 11.3 9.0 132.4 113.1 0.00 0.2298814 47.1
2021-03-01 14:10:00 54.7 22.4 17.0 54.7 8.8 14.9 11.1 147.2 156.3 0.00 0.2270834 47.2
2021-03-01 14:15:00 54.5 23.9 18.3 54.5 6.3 11.2 8.3 89.9 139.4 0.00 0.2236952 47.2
2021-03-01 14:20:00 55.4 21.1 16.2 55.4 5.5 13.9 8.1 56.2 125.4 0.00 0.2201328 47.3
2021-03-01 14:25:00 54.6 21.7 16.1 54.6 8.1 12.8 8.9 153.9 133.9 0.00 0.2162577 47.3
2021-03-01 14:30:00 55.2 21.8 16.7 55.2 8.5 11.7 7.8 165.1 151.1 0.00 0.2124888 47.4
2021-03-01 14:35:00 54.9 22.0 16.8 54.9 7.2 11.0 7.5 112.8 119.6 0.00 0.2087924 47.4
2021-03-01 14:40:00 55.4 22.4 17.5 55.4 8.7 13.3 8.6 98.7 102.7 0.00 0.2048551 47.5
2021-03-01 14:45:00 55.5 21.4 16.6 55.5 6.9 11.9 7.1 130.2 111.7 0.00 0.2010287 47.5
2021-03-01 14:50:00 55.1 21.9 16.8 55.1 3.0 8.3 4.7 142.1 152.6 0.00 0.1966860 47.6
2021-03-01 14:55:00 55.0 22.3 17.1 55.0 8.0 10.6 7.1 155.2 156.7 0.00 0.1924379 47.6
2021-03-01 15:00:00 55.7 20.7 16.0 55.7 6.7 10.8 4.2 289.3 165.3 0.00 0.1879502 47.6
2021-03-01 15:05:00 56.5 20.4 16.2 56.5 5.5 10.6 5.3 167.0 151.3 0.00 0.1833474 47.7
2021-03-01 15:10:00 55.3 21.6 16.7 55.3 6.9 10.3 6.7 102.8 163.8 0.00 0.1786348 47.7
2021-03-01 15:15:00 54.7 21.3 15.8 54.7 10.3 11.5 8.2 114.8 113.5 0.00 0.1436736 47.8
2021-03-01 15:20:00 55.3 21.3 16.4 55.3 4.7 11.5 8.2 87.7 117.8 0.00 0.1671964 47.8
2021-03-01 15:25:00 55.8 20.2 15.5 55.8 3.7 7.2 3.6 225.4 180.2 0.00 0.1652187 47.8
2021-03-01 15:30:00 55.5 20.7 15.8 55.5 3.3 11.0 4.8 13.2 104.6 0.00 0.1602086 47.9
2021-03-01 15:35:00 55.2 20.4 15.2 55.2 5.6 12.1 6.5 100.3 121.8 0.00 0.1547125 47.9
2021-03-01 15:40:00 55.2 19.8 14.6 55.2 5.6 10.5 7.6 110.1 116.8 0.00 0.1496471 47.9
2021-03-01 15:45:00 55.7 19.5 14.6 55.7 7.1 9.9 5.0 121.9 93.3 0.00 0.1453388 47.9
2021-03-01 15:50:00 55.4 19.3 14.2 55.4 4.9 10.6 7.1 68.9 96.7 0.00 0.1397348 47.9
2021-03-01 15:55:00 55.5 19.6 14.6 55.5 6.2 10.8 6.3 115.2 118.4 0.00 0.1352548 47.9
2021-03-01 16:00:00 55.2 19.9 14.6 55.2 8.0 12.4 8.2 115.4 126.5 0.00 0.1292110 48.0
2021-03-01 16:05:00 55.5 19.5 14.4 55.5 5.6 10.1 6.3 133.8 134.0 0.00 0.1239282 48.0
2021-03-01 16:10:00 55.4 19.7 14.6 55.4 7.1 11.5 8.9 127.0 132.0 0.00 0.1190003 48.0
2021-03-01 16:15:00 55.7 19.7 14.8 55.7 5.3 8.1 6.5 171.4 141.7 0.00 0.1135494 48.0
2021-03-01 16:20:00 55.4 19.9 14.8 55.4 4.7 7.1 4.6 163.9 155.2 0.00 0.1078817 48.0
2021-03-01 16:25:00 55.1 20.0 14.7 55.1 9.0 9.0 5.6 155.0 186.1 0.00 0.1021089 48.0
2021-03-01 16:30:00 56.1 19.4 14.9 56.1 5.1 11.5 6.8 145.8 132.3 0.00 0.0970702 48.0
2021-03-01 16:35:00 56.0 20.1 15.6 56.0 6.0 9.9 6.9 140.8 141.7 0.00 0.0916556 48.0
2021-03-01 16:40:00 54.8 21.0 15.6 54.8 7.4 12.1 8.8 172.3 150.9 0.00 0.0860728 48.1
2021-03-01 16:45:00 54.9 21.7 16.4 54.9 4.9 8.0 5.0 146.8 168.5 0.00 0.0807922 48.1
2021-03-01 16:50:00 54.7 20.6 15.0 54.7 6.5 9.6 7.7 97.2 154.7 0.00 0.0756686 48.1
2021-03-01 16:55:00 54.6 20.5 14.8 54.6 9.7 10.1 8.3 118.3 115.9 0.00 0.0708308 48.1
2021-03-01 17:00:00 55.1 20.3 15.0 55.1 6.9 9.2 6.5 105.0 120.3 0.00 0.0656025 48.1
2021-03-01 17:05:00 54.4 21.3 15.7 54.4 6.7 9.2 6.9 146.6 149.3 0.00 0.0601214 48.1
2021-03-01 17:10:00 54.1 21.9 16.0 54.1 10.8 13.1 9.2 142.4 159.5 0.00 0.0549408 48.1
2021-03-01 17:15:00 54.1 21.6 15.6 54.1 6.2 11.0 8.0 172.7 153.4 0.00 0.0498294 48.1
2021-03-01 17:20:00 53.8 21.1 14.8 53.8 5.5 9.2 7.1 146.6 151.2 0.00 0.0446063 48.1
2021-03-01 17:25:00 54.0 22.0 15.9 54.0 7.4 7.8 6.1 160.9 152.6 0.00 0.0395506 48.1
2021-03-01 17:30:00 53.6 22.8 16.5 53.6 5.3 11.2 7.9 151.1 139.8 0.00 0.0345615 48.1
2021-03-01 17:35:00 53.2 22.8 16.1 53.2 9.2 9.2 6.7 148.9 152.7 0.00 0.0287417 48.0
2021-03-01 17:40:00 52.9 23.1 16.2 52.9 6.7 9.9 7.6 167.2 157.7 0.00 0.0194188 48.0
2021-03-01 17:45:00 52.8 23.0 15.9 52.8 7.6 8.8 7.5 146.9 144.3 0.00 0.0095511 48.0
2021-03-01 17:50:00 52.3 23.9 16.4 52.3 5.6 8.3 6.7 142.7 144.6 0.00 0.0049012 48.0
2021-03-01 17:55:00 52.2 24.1 16.6 52.2 4.0 8.5 6.4 142.2 139.5 0.00 0.0033239 48.0
2021-03-01 18:00:00 51.8 24.7 16.8 51.8 5.1 7.1 5.5 143.5 142.5 0.00 0.0019832 48.0
2021-03-01 18:05:00 51.4 25.0 16.6 51.4 5.5 6.5 5.4 166.6 159.0 0.00 0.0009071 48.0
2021-03-01 18:10:00 51.1 25.4 16.8 51.1 4.6 6.5 5.5 161.3 157.1 0.00 0.0000963 48.0
2021-03-01 18:15:00 50.7 25.5 16.6 50.7 5.1 6.5 4.9 157.5 158.1 0.00 0.0000000 48.0
2021-03-01 18:20:00 50.3 25.7 16.3 50.3 4.7 5.8 4.7 158.8 157.7 0.00 0.0000000 47.9
2021-03-01 18:25:00 49.8 25.5 15.8 49.8 3.5 5.6 3.8 146.8 150.6 0.00 0.0000000 47.9
2021-03-01 18:30:00 49.2 26.5 16.2 49.2 2.6 3.5 2.7 154.2 150.9 0.00 0.0000000 47.9
2021-03-01 18:35:00 48.8 27.1 16.4 48.8 2.4 3.0 2.6 154.1 151.2 0.00 0.0000000 47.9
2021-03-01 18:40:00 48.5 27.1 16.1 48.5 2.4 3.1 2.7 145.1 143.2 0.00 0.0000000 47.9
2021-03-01 18:45:00 48.1 27.6 16.2 48.1 1.9 3.3 2.6 146.7 134.7 0.00 0.0000000 47.9
2021-03-01 18:50:00 47.8 28.6 16.7 47.8 2.1 3.3 2.5 152.1 148.1 0.00 0.0000000 47.8
2021-03-01 18:55:00 47.4 28.8 16.6 47.4 1.9 2.8 2.4 134.3 152.6 0.00 0.0000000 47.8
2021-03-01 19:00:00 47.0 30.2 17.2 47.0 2.2 2.8 2.3 154.3 146.6 0.00 0.0000000 47.8
2021-03-01 19:05:00 46.7 29.9 16.8 46.7 2.2 3.1 2.4 137.2 148.0 0.00 0.0000000 47.8
2021-03-01 19:10:00 46.1 30.4 16.6 46.1 2.1 2.8 2.3 157.4 143.3 0.00 0.0000000 47.7
2021-03-01 19:15:00 45.9 30.5 16.6 45.9 2.4 2.6 2.2 151.8 147.1 0.00 0.0000000 47.7
2021-03-01 19:20:00 45.3 29.7 15.3 45.3 2.2 2.4 2.1 103.9 119.8 0.00 0.0000000 47.7
2021-03-01 19:25:00 44.9 31.5 16.4 44.9 2.2 2.4 2.0 135.6 124.0 0.00 0.0000000 47.7
2021-03-01 19:30:00 44.5 30.5 15.3 44.5 2.6 2.8 2.1 99.8 118.4 0.00 0.0000000 47.6
2021-03-01 19:35:00 44.7 31.6 16.3 44.7 3.5 4.4 3.1 118.7 125.5 0.00 0.0000000 47.6
2021-03-01 19:40:00 45.1 32.1 17.0 45.1 3.5 5.5 4.0 124.0 121.9 0.00 0.0000000 47.6
2021-03-01 19:45:00 44.7 32.5 17.0 44.7 3.5 4.2 3.3 126.3 119.7 0.00 0.0000000 47.5
2021-03-01 19:50:00 44.2 33.0 16.9 44.2 3.5 4.7 3.5 119.3 121.4 0.00 0.0000000 47.5
2021-03-01 19:55:00 43.8 33.1 16.6 43.8 3.5 4.4 3.6 133.6 123.3 0.00 0.0000000 47.4
2021-03-01 20:00:00 43.3 33.3 16.3 43.3 2.8 4.4 3.3 159.4 142.4 0.00 0.0000000 47.4
2021-03-01 20:05:00 42.8 33.6 16.0 42.8 3.3 4.0 3.4 159.6 160.3 0.00 0.0000000 47.4
2021-03-01 20:10:00 43.2 32.2 15.5 43.2 2.8 5.5 3.7 133.6 148.6 0.00 0.0000000 47.3
2021-03-01 20:15:00 42.8 33.7 16.1 42.8 3.5 3.8 3.1 150.0 133.5 0.00 0.0000000 47.3
2021-03-01 20:20:00 42.8 33.3 15.9 42.8 3.5 4.4 3.6 155.9 146.9 0.00 0.0000000 47.3
2021-03-01 20:25:00 42.8 33.0 15.6 42.8 3.8 4.4 3.8 128.5 143.8 0.00 0.0000000 47.2
2021-03-01 20:30:00 42.8 33.3 15.9 42.8 4.2 4.9 3.9 134.8 142.2 0.00 0.0000000 47.2
2021-03-01 20:35:00 42.7 33.5 15.9 42.7 5.1 5.1 4.1 163.2 152.3 0.00 0.0000000 47.2
2021-03-01 20:40:00 42.8 33.2 15.8 42.8 4.6 5.5 4.6 144.6 153.5 0.00 0.0000000 47.1
2021-03-01 20:45:00 42.6 33.3 15.7 42.6 4.0 4.4 3.7 143.8 141.9 0.00 0.0000000 47.1
2021-03-01 20:50:00 42.1 34.0 15.7 42.1 4.4 4.4 3.7 170.0 153.2 0.00 0.0000000 47.1
2021-03-01 20:55:00 41.5 35.3 16.1 41.5 2.6 5.1 4.0 175.4 179.1 0.00 0.0000000 47.0
2021-03-01 21:00:00 41.5 34.6 15.6 41.5 3.7 4.6 3.7 142.8 162.7 0.00 0.0000000 47.0
2021-03-01 21:05:00 41.8 34.4 15.7 41.8 3.5 4.7 3.6 150.2 140.8 0.00 0.0000000 47.0
2021-03-01 21:10:00 41.4 35.7 16.2 41.4 4.2 4.7 3.8 166.8 148.2 0.00 0.0000000 46.9
2021-03-01 21:15:00 41.1 35.8 16.0 41.1 4.7 5.5 4.6 150.3 161.5 0.00 0.0000000 46.9
2021-03-01 21:20:00 41.1 36.4 16.4 41.1 5.1 5.1 4.5 166.5 157.5 0.00 0.0000000 46.9
2021-03-01 21:25:00 41.1 36.1 16.2 41.1 3.3 5.1 4.2 141.6 154.0 0.00 0.0000000 46.8
2021-03-01 21:30:00 40.9 36.6 16.4 40.9 2.4 4.9 3.5 127.8 130.8 0.00 0.0000000 46.8
2021-03-01 21:35:00 40.7 38.0 17.1 40.7 3.5 4.0 3.3 153.0 149.4 0.00 0.0000000 46.8
2021-03-01 21:40:00 40.3 39.7 17.7 40.3 4.2 4.2 3.6 167.2 157.5 0.00 0.0000000 46.8
2021-03-01 21:45:00 39.8 40.8 17.9 39.8 3.8 4.9 3.9 201.6 190.9 0.00 0.0000000 46.7
2021-03-01 21:50:00 39.8 40.9 17.9 39.8 3.3 4.2 3.2 178.4 185.1 0.00 0.0000000 46.7
2021-03-01 21:55:00 40.2 41.9 18.9 40.2 4.6 6.3 4.6 164.4 172.6 0.00 0.0000000 46.7
2021-03-01 22:00:00 39.8 42.2 18.7 39.8 3.1 4.7 3.3 178.4 182.1 0.00 0.0000000 46.6
2021-03-01 22:05:00 39.5 41.6 18.0 39.5 2.8 4.2 3.0 141.3 150.1 0.00 0.0000000 46.6
2021-03-01 22:10:00 39.1 41.6 17.7 39.1 2.2 3.3 2.8 137.4 137.7 0.00 0.0000000 46.6
2021-03-01 22:15:00 38.9 43.4 18.5 38.9 2.2 2.8 2.2 142.0 141.9 0.00 0.0000000 46.5
2021-03-01 22:20:00 38.7 44.0 18.7 38.7 2.8 2.8 2.2 176.9 149.9 0.00 0.0000000 46.5
2021-03-01 22:25:00 38.1 44.0 18.1 38.1 3.5 3.7 2.6 204.0 192.9 0.00 0.0000000 46.5
2021-03-01 22:30:00 37.9 44.5 18.1 37.9 1.9 3.3 2.4 185.5 209.0 0.00 0.0000000 46.5
2021-03-01 22:35:00 37.5 47.8 19.5 37.5 1.5 1.9 1.5 158.2 160.0 0.00 0.0000000 46.4
2021-03-01 22:40:00 37.3 47.8 19.3 37.3 1.9 2.2 1.8 150.0 153.2 0.00 0.0000000 46.4
2021-03-01 22:45:00 36.9 47.1 18.6 36.9 2.1 2.4 1.8 169.1 148.6 0.00 0.0000000 46.4
2021-03-01 22:50:00 37.0 50.0 20.1 37.0 3.3 3.5 2.9 165.6 166.0 0.00 0.0000000 46.4
2021-03-01 22:55:00 36.7 47.4 18.5 36.7 1.5 3.3 2.2 119.7 136.0 0.00 0.0000000 46.3
2021-03-01 23:00:00 35.7 50.0 18.9 35.7 2.1 2.4 1.9 137.3 136.8 0.00 0.0000000 46.3
2021-03-01 23:05:00 35.7 53.3 20.4 35.7 3.0 3.0 2.4 121.7 146.9 0.00 0.0000000 46.3
2021-03-01 23:10:00 36.4 45.5 17.3 36.4 1.2 3.5 2.2 275.9 118.1 0.00 0.0000000 46.2
2021-03-01 23:15:00 35.1 50.4 18.5 35.1 2.4 2.6 1.5 227.4 236.9 0.00 0.0000000 46.2
2021-03-01 23:20:00 34.2 49.8 17.4 34.2 2.4 3.1 2.2 245.1 240.7 0.00 0.0000000 46.2
2021-03-01 23:25:00 33.1 50.7 16.7 33.1 3.0 3.5 2.7 240.8 247.5 0.00 0.0000000 46.2
2021-03-01 23:30:00 33.1 54.3 18.3 33.1 2.6 3.7 2.7 249.1 240.7 0.00 0.0000000 46.1
2021-03-01 23:35:00 32.4 50.4 16.0 32.4 1.9 2.8 2.1 276.1 269.9 0.00 0.0000000 46.1
2021-03-01 23:40:00 31.4 52.0 15.8 31.4 1.5 2.2 1.9 273.6 281.2 0.00 0.0000000 46.1
2021-03-01 23:45:00 30.8 53.0 15.7 30.8 1.3 1.9 1.6 247.1 259.9 0.00 0.0000000 46.0
2021-03-01 23:50:00 30.7 54.5 16.2 30.7 1.5 1.9 1.4 233.1 247.0 0.00 0.0000000 46.0
2021-03-01 23:55:00 30.5 55.7 16.5 30.5 1.2 1.9 1.3 318.6 250.4 0.00 0.0000000 46.0
2021-03-02 00:00:00 30.3 54.5 15.9 30.3 2.2 2.2 1.4 347.2 336.2 0.00 0.0000000 45.9
2021-03-02 00:05:00 29.8 56.5 16.2 29.8 1.9 2.6 2.1 297.5 320.1 0.00 0.0000000 45.9
2021-03-02 00:10:00 29.5 57.8 16.4 29.5 1.3 1.9 1.4 3.4 284.0 0.00 0.0000000 45.9
2021-03-02 00:15:00 29.7 57.7 16.6 29.7 1.9 2.4 1.7 329.1 348.7 0.00 0.0000000 45.8
2021-03-02 00:20:00 29.8 57.1 16.5 29.8 1.7 2.1 1.7 275.4 309.6 0.00 0.0000000 45.8
2021-03-02 00:25:00 29.9 59.3 17.4 29.9 1.9 2.4 1.9 240.3 266.2 0.00 0.0000000 45.8
2021-03-02 00:30:00 30.2 55.7 16.3 30.2 1.2 2.2 1.8 200.7 217.2 0.00 0.0000000 45.8
2021-03-02 00:35:00 29.7 57.6 16.6 29.7 1.2 1.5 1.1 329.9 269.8 0.00 0.0000000 45.7
2021-03-02 00:40:00 29.2 58.4 16.4 29.2 1.5 1.5 0.9 349.1 339.2 0.00 0.0000000 45.7
2021-03-02 00:45:00 28.7 57.2 15.5 28.7 1.5 1.9 1.5 328.9 357.9 0.00 0.0000000 45.7
2021-03-02 00:50:00 28.4 59.0 15.9 28.4 1.2 1.5 1.2 315.8 331.9 0.00 0.0000000 45.7
2021-03-02 00:55:00 28.4 61.0 16.7 28.4 0.0 1.2 0.9 347.7 334.5 0.00 0.0000000 45.6
2021-03-02 01:00:00 28.2 63.9 17.6 28.2 0.0 1.3 0.5 292.7 42.3 0.00 0.0000000 45.6
2021-03-02 01:05:00 28.4 61.3 16.7 28.4 1.7 1.9 1.5 328.7 315.1 0.00 0.0000000 45.6
2021-03-02 01:10:00 28.7 61.5 17.2 28.7 1.7 3.1 2.2 344.2 351.5 0.00 0.0000000 45.5
2021-03-02 01:15:00 28.6 64.2 18.0 28.6 2.4 2.6 1.9 247.1 278.3 0.00 0.0000000 45.5
2021-03-02 01:20:00 28.6 60.9 16.8 28.6 3.5 4.0 3.3 222.8 231.6 0.00 0.0000000 45.5
2021-03-02 01:25:00 28.1 61.9 16.7 28.1 3.1 3.5 3.3 235.1 232.5 0.00 0.0000000 45.5
2021-03-02 01:30:00 28.1 65.3 18.0 28.1 3.5 3.7 3.0 216.5 217.0 0.00 0.0000000 45.4
2021-03-02 01:35:00 28.5 59.6 16.3 28.5 3.3 3.5 2.9 228.2 233.4 0.00 0.0000000 45.4
2021-03-02 01:40:00 28.4 60.9 16.6 28.4 1.2 3.5 2.0 270.2 246.3 0.00 0.0000000 45.4
2021-03-02 01:45:00 27.5 58.3 14.8 27.5 2.1 2.2 1.6 264.6 306.3 0.00 0.0000000 45.3
2021-03-02 01:50:00 27.3 61.4 15.7 27.3 1.5 2.1 1.6 192.4 216.2 0.00 0.0000000 45.3
2021-03-02 01:55:00 27.3 60.8 15.5 27.3 2.1 2.1 1.5 323.2 256.3 0.00 0.0000000 45.3
2021-03-02 02:00:00 26.6 57.8 13.7 26.6 1.3 2.6 2.0 305.6 288.7 0.00 0.0000000 45.2
2021-03-02 02:05:00 26.3 61.6 14.9 26.3 2.2 2.4 1.8 322.5 319.8 0.00 0.0000000 45.2
2021-03-02 02:10:00 26.1 61.8 14.8 26.1 1.9 2.8 2.3 314.4 283.8 0.00 0.0000000 45.2
2021-03-02 02:15:00 26.0 63.5 15.3 26.0 1.7 2.4 2.0 256.2 284.2 0.00 0.0000000 45.2
2021-03-02 02:20:00 26.1 64.1 15.6 26.1 0.0 1.9 0.8 340.5 260.1 0.00 0.0000000 45.1
2021-03-02 02:25:00 25.7 62.8 14.8 25.7 1.7 2.1 1.6 280.2 308.7 0.00 0.0000000 45.1
2021-03-02 02:30:00 25.6 62.4 14.5 25.6 1.7 2.1 1.8 297.0 271.6 0.00 0.0000000 45.1
2021-03-02 02:35:00 25.6 65.5 15.7 25.6 1.9 2.2 2.0 294.8 320.3 0.00 0.0000000 45.1
2021-03-02 02:40:00 25.7 66.5 16.1 25.7 1.7 2.8 2.0 305.3 265.7 0.00 0.0000000 45.0
2021-03-02 02:45:00 25.3 65.2 15.3 25.3 2.6 5.1 3.6 297.4 319.8 0.00 0.0000000 45.0
2021-03-02 02:50:00 25.6 74.2 18.5 25.6 3.0 3.8 3.1 247.0 279.7 0.00 0.0000000 45.0
2021-03-02 02:55:00 25.9 64.9 15.7 25.9 2.6 3.5 2.8 322.4 315.7 0.00 0.0000000 45.0
2021-03-02 03:00:00 25.7 71.2 17.6 25.7 3.5 3.5 2.4 110.2 299.2 0.00 0.0000000 45.0
2021-03-02 03:05:00 26.0 63.9 15.5 26.0 3.1 4.7 3.3 6.9 304.5 0.00 0.0000000 44.9
2021-03-02 03:10:00 25.4 69.0 16.7 25.4 1.3 2.8 1.7 350.1 347.0 0.00 0.0000000 44.9
2021-03-02 03:15:00 26.3 66.9 16.8 26.3 3.5 3.7 2.9 241.7 237.8 0.00 0.0000000 44.9
2021-03-02 03:20:00 26.0 68.7 17.2 26.0 2.4 3.5 3.1 195.6 221.1 0.00 0.0000000 44.8
2021-03-02 03:25:00 25.9 70.5 17.6 25.9 2.4 2.6 2.2 334.7 249.8 0.00 0.0000000 44.8
2021-03-02 03:30:00 25.9 71.7 18.0 25.9 2.4 6.0 4.4 321.8 353.8 0.00 0.0000000 44.8
2021-03-02 03:35:00 25.7 70.9 17.5 25.7 1.5 2.2 1.3 204.2 346.1 0.00 0.0000000 44.8
2021-03-02 03:40:00 26.1 75.2 19.3 26.1 2.1 2.1 1.5 312.3 280.6 0.00 0.0000000 44.7
2021-03-02 03:45:00 27.1 67.5 17.7 27.1 1.7 2.2 1.9 291.1 305.1 0.00 0.0000000 44.7
2021-03-02 03:50:00 26.5 70.1 18.1 26.5 1.7 2.2 1.8 274.2 257.4 0.00 0.0000000 44.7
2021-03-02 03:55:00 26.7 69.3 18.0 26.7 2.1 2.2 1.5 145.6 301.0 0.00 0.0000000 44.7
2021-03-02 04:00:00 26.2 68.9 17.4 26.2 2.8 3.0 2.4 196.9 266.8 0.00 0.0000000 44.7
2021-03-02 04:05:00 26.3 70.5 18.0 26.3 1.7 2.8 2.1 262.6 230.5 0.00 0.0000000 44.6
2021-03-02 04:10:00 26.2 65.2 16.1 26.2 1.7 2.6 2.0 154.0 247.0 0.00 0.0000000 44.6
2021-03-02 04:15:00 25.3 68.2 16.3 25.3 2.8 3.1 2.3 251.4 228.6 0.00 0.0000000 44.6
2021-03-02 04:20:00 24.6 65.7 14.7 24.6 1.9 2.8 1.8 316.6 273.1 0.00 0.0000000 44.6
2021-03-02 04:25:00 23.4 68.6 14.6 23.4 2.1 3.3 2.6 306.1 291.4 0.00 0.0000000 44.5
2021-03-02 04:30:00 23.0 73.3 15.7 23.0 3.7 4.4 3.0 296.1 282.8 0.00 0.0000000 44.5
2021-03-02 04:35:00 23.3 70.5 15.1 23.3 2.4 4.2 3.0 300.8 279.0 0.00 0.0000000 44.5
2021-03-02 04:40:00 22.7 70.9 14.7 22.7 1.7 3.0 2.3 98.8 272.3 0.00 0.0000000 44.5
2021-03-02 04:45:00 23.3 73.5 16.1 23.3 2.1 3.5 2.5 203.0 190.3 0.00 0.0000000 44.4
2021-03-02 04:50:00 24.6 73.3 17.3 24.6 1.7 3.7 2.3 7.2 257.3 0.00 0.0000000 44.4
2021-03-02 04:55:00 24.6 71.5 16.7 24.6 2.8 3.1 2.4 245.6 245.4 0.00 0.0000000 44.4
2021-03-02 05:00:00 24.7 70.8 16.6 24.7 1.7 3.0 2.3 183.7 225.5 0.00 0.0000000 44.4
2021-03-02 05:05:00 24.7 70.5 16.5 24.7 1.2 2.1 1.7 237.3 199.3 0.00 0.0000000 44.4
2021-03-02 05:10:00 24.5 69.2 15.8 24.5 2.4 3.3 2.2 168.8 186.2 0.00 0.0000000 44.3
2021-03-02 05:15:00 24.1 70.3 15.9 24.1 2.8 3.5 2.9 224.6 245.5 0.00 0.0000000 44.3
2021-03-02 05:20:00 24.3 71.2 16.3 24.3 2.8 4.6 3.4 321.8 273.4 0.00 0.0000000 44.3
2021-03-02 05:25:00 23.6 68.2 14.7 23.6 2.2 3.0 2.3 308.9 291.3 0.00 0.0000000 44.3
2021-03-02 05:30:00 23.3 70.7 15.2 23.3 3.0 4.4 3.0 306.2 299.0 0.00 0.0000000 44.3
2021-03-02 05:35:00 23.3 74.0 16.3 23.3 3.8 4.2 2.7 310.2 290.6 0.00 0.0000000 44.2
2021-03-02 05:40:00 23.6 72.3 16.0 23.6 2.6 3.8 2.6 302.4 304.7 0.00 0.0000000 44.2
2021-03-02 05:45:00 23.1 72.4 15.5 23.1 2.8 3.8 3.3 319.1 320.3 0.00 0.0000000 44.2
2021-03-02 05:50:00 22.6 75.4 16.0 22.6 2.1 2.6 2.3 315.2 294.0 0.00 0.0000000 44.1
2021-03-02 05:55:00 22.7 75.2 16.1 22.7 3.3 3.8 3.2 312.5 317.9 0.00 0.0000000 44.1
2021-03-02 06:00:00 22.6 76.1 16.2 22.6 3.0 3.3 1.9 20.6 349.2 0.00 0.0000000 44.1
2021-03-02 06:05:00 22.7 71.4 14.9 22.7 2.2 3.1 2.1 98.2 62.2 0.00 0.0000000 44.1
2021-03-02 06:10:00 22.5 72.7 15.0 22.5 0.8 2.1 1.3 174.2 137.8 0.00 0.0000000 44.1
2021-03-02 06:15:00 22.9 75.2 16.2 22.9 3.0 3.0 1.6 239.7 212.1 0.00 0.0000000 44.0
2021-03-02 06:20:00 22.9 72.7 15.4 22.9 2.8 3.5 2.7 216.4 180.6 0.00 0.0000000 44.0
2021-03-02 06:25:00 22.7 69.8 14.3 22.7 1.7 3.5 2.9 247.3 233.7 0.00 0.0000000 44.0
2021-03-02 06:30:00 22.0 73.8 14.9 22.0 2.1 3.1 2.3 12.8 6.5 0.00 0.0001725 44.0
2021-03-02 06:35:00 21.6 73.3 14.4 21.6 1.7 2.1 1.4 233.1 317.2 0.00 0.0008296 44.0
2021-03-02 06:40:00 21.6 73.7 14.5 21.6 1.7 1.7 1.1 300.7 306.5 0.00 0.0019029 43.9
2021-03-02 06:45:00 21.6 73.7 14.5 21.6 1.9 2.1 1.7 262.0 342.2 0.00 0.0074910 43.9
2021-03-02 06:50:00 22.1 72.0 14.5 22.1 0.0 2.6 1.7 99.3 349.6 0.00 0.0148295 43.9
2021-03-02 06:55:00 22.9 72.3 15.3 22.9 2.2 2.2 1.1 300.7 317.2 0.00 0.0203516 43.9
2021-03-02 07:00:00 23.7 70.4 15.5 23.7 2.2 2.6 2.4 345.7 346.6 0.00 0.0252695 43.9
2021-03-02 07:05:00 24.6 68.8 15.8 24.6 1.5 2.4 1.1 303.1 338.0 0.00 0.0299360 43.9
2021-03-02 07:10:00 25.2 67.4 16.0 25.2 1.9 2.1 1.6 11.1 351.3 0.00 0.0347779 43.8
2021-03-02 07:15:00 26.2 67.0 16.7 26.2 1.5 2.1 1.7 18.8 1.9 0.00 0.0397478 43.8
2021-03-02 07:20:00 27.6 64.7 17.2 27.6 1.2 1.5 1.4 4.2 353.0 0.00 0.0447235 43.8
2021-03-02 07:25:00 29.4 62.1 18.0 29.4 0.0 1.5 0.9 329.2 330.0 0.00 0.0496359 43.8

Data is courtesy of the NM Climate Center. DO NOT USE IN LEGAL PROCEEDINGS.